createdAt,value
2024-03-11T00:00:39.396Z,549.00
2024-03-11T00:01:39.392Z,551.00
2024-03-11T00:02:39.553Z,550.00
2024-03-11T00:03:39.505Z,548.00
2024-03-11T00:04:39.617Z,548.00
2024-03-11T00:05:39.694Z,549.00
2024-03-11T00:06:39.702Z,547.00
2024-03-11T00:07:39.772Z,547.00
2024-03-11T00:08:39.860Z,549.00
2024-03-11T00:09:39.894Z,550.00
2024-03-11T00:10:40.115Z,548.00
2024-03-11T00:11:40.093Z,545.00
2024-03-11T00:12:39.984Z,543.00
2024-03-11T00:13:40.024Z,544.00
2024-03-11T00:14:40.112Z,545.00
2024-03-11T00:15:40.084Z,545.00
2024-03-11T00:16:40.140Z,543.00
2024-03-11T00:17:40.254Z,545.00
2024-03-11T00:18:40.280Z,546.00
2024-03-11T00:19:40.241Z,545.00
2024-03-11T00:20:40.332Z,543.00
2024-03-11T00:21:40.294Z,543.00
2024-03-11T00:22:40.311Z,544.00
2024-03-11T00:23:40.309Z,548.00
2024-03-11T00:24:40.321Z,549.00
2024-03-11T00:25:40.319Z,548.00
2024-03-11T00:26:40.442Z,546.00
2024-03-11T00:27:40.373Z,546.00
2024-03-11T00:28:40.380Z,547.00
2024-03-11T00:29:40.499Z,546.00
2024-03-11T00:30:40.461Z,546.00
2024-03-11T00:31:40.451Z,545.00
2024-03-11T00:32:40.529Z,544.00
2024-03-11T00:33:40.538Z,543.00
2024-03-11T00:34:40.431Z,541.00
2024-03-11T00:35:40.717Z,542.00
2024-03-11T00:36:40.554Z,543.00
2024-03-11T00:37:40.472Z,541.00
2024-03-11T00:38:40.545Z,541.00
2024-03-11T00:39:40.521Z,540.00
2024-03-11T00:40:40.566Z,541.00
2024-03-11T00:41:40.593Z,542.00
2024-03-11T00:42:40.642Z,542.00
2024-03-11T00:43:40.591Z,544.00
2024-03-11T00:44:40.735Z,544.00
2024-03-11T00:45:40.661Z,544.00
2024-03-11T00:46:40.689Z,543.00
2024-03-11T00:47:40.750Z,545.00
2024-03-11T00:48:40.745Z,544.00
2024-03-11T00:49:40.754Z,541.00
2024-03-11T00:50:40.775Z,542.00
2024-03-11T00:51:41.258Z,545.00
2024-03-11T00:52:40.817Z,545.00
2024-03-11T00:53:40.892Z,545.00
2024-03-11T00:54:40.851Z,545.00
2024-03-11T00:55:40.878Z,545.00
2024-03-11T00:56:41.040Z,546.00
2024-03-11T00:57:40.962Z,550.00
2024-03-11T00:58:40.994Z,552.00
2024-03-11T00:59:43.273Z,551.00
2024-03-11T01:00:41.022Z,550.00
2024-03-11T01:01:41.032Z,549.00
2024-03-11T01:02:41.092Z,549.00
2024-03-11T01:03:41.032Z,549.00
2024-03-11T01:04:41.001Z,548.00
2024-03-11T01:05:41.383Z,547.00
2024-03-11T01:06:46.685Z,546.00
2024-03-11T01:07:46.133Z,545.00
2024-03-11T01:08:42.116Z,545.00
2024-03-11T01:09:41.052Z,544.00
2024-03-11T01:10:41.041Z,543.00
2024-03-11T01:11:41.099Z,545.00
2024-03-11T01:12:41.060Z,545.00
2024-03-11T01:13:41.048Z,543.00
2024-03-11T01:14:41.092Z,544.00
2024-03-11T01:15:41.063Z,547.00
2024-03-11T01:16:41.011Z,549.00
2024-03-11T01:17:41.964Z,550.00
2024-03-11T01:18:41.146Z,551.00
2024-03-11T01:19:41.042Z,553.00
2024-03-11T01:20:41.050Z,553.00
2024-03-11T01:21:41.030Z,552.00
2024-03-11T01:22:41.720Z,554.00
2024-03-11T01:23:41.076Z,553.00
2024-03-11T01:24:41.052Z,551.00
2024-03-11T01:25:41.089Z,551.00
2024-03-11T01:26:41.063Z,550.00
2024-03-11T01:27:41.219Z,552.00
2024-03-11T01:28:41.027Z,553.00
2024-03-11T01:29:41.129Z,553.00
2024-03-11T01:30:41.042Z,552.00
2024-03-11T01:31:41.058Z,552.00
2024-03-11T01:32:41.559Z,551.00
2024-03-11T01:33:41.091Z,550.00
2024-03-11T01:34:41.082Z,547.00
2024-03-11T01:35:41.156Z,546.00
2024-03-11T01:36:41.116Z,546.00
2024-03-11T01:37:41.062Z,547.00
2024-03-11T01:38:41.137Z,548.00
2024-03-11T01:39:41.072Z,549.00
2024-03-11T01:40:41.087Z,550.00
2024-03-11T01:41:41.284Z,551.00
2024-03-11T01:42:41.742Z,550.00
2024-03-11T01:43:41.091Z,548.00
2024-03-11T01:44:41.205Z,549.00
2024-03-11T01:45:41.233Z,549.00
2024-03-11T01:46:41.262Z,548.00
2024-03-11T01:47:41.424Z,549.00
2024-03-11T01:48:41.386Z,548.00
2024-03-11T01:49:41.383Z,548.00
2024-03-11T01:50:41.520Z,549.00
2024-03-11T01:51:41.499Z,550.00
2024-03-11T01:52:41.496Z,550.00
2024-03-11T01:53:41.580Z,548.00
2024-03-11T01:54:41.586Z,547.00
2024-03-11T01:55:41.622Z,548.00
2024-03-11T01:56:41.755Z,550.00
2024-03-11T01:57:41.750Z,549.00
2024-03-11T01:58:41.754Z,548.00
2024-03-11T01:59:41.906Z,547.00
2024-03-11T02:00:41.871Z,548.00
2024-03-11T02:01:41.913Z,547.00
2024-03-11T02:02:42.168Z,548.00
2024-03-11T02:03:42.042Z,551.00
2024-03-11T02:04:42.078Z,550.00
2024-03-11T02:05:42.434Z,551.00
2024-03-11T02:06:42.198Z,554.00
2024-03-11T02:07:42.222Z,554.00
2024-03-11T02:08:42.335Z,552.00
2024-03-11T02:09:42.314Z,554.00
2024-03-11T02:10:42.462Z,555.00
2024-03-11T02:11:42.542Z,554.00
2024-03-11T02:12:42.517Z,552.00
2024-03-11T02:13:42.496Z,550.00
2024-03-11T02:14:42.672Z,550.00
2024-03-11T02:15:42.607Z,552.00
2024-03-11T02:16:42.684Z,551.00
2024-03-11T02:17:42.746Z,549.00
2024-03-11T02:18:42.797Z,550.00
2024-03-11T02:19:42.777Z,549.00
2024-03-11T02:20:42.873Z,550.00
2024-03-11T02:21:42.911Z,550.00
2024-03-11T02:22:42.942Z,546.00
2024-03-11T02:23:43.078Z,546.00
2024-03-11T02:24:43.068Z,548.00
2024-03-11T02:25:43.051Z,549.00
2024-03-11T02:26:43.172Z,550.00
2024-03-11T02:27:43.184Z,549.00
2024-03-11T02:28:43.216Z,551.00
2024-03-11T02:29:43.320Z,554.00
2024-03-11T02:30:43.370Z,554.00
2024-03-11T02:31:43.400Z,553.00
2024-03-11T02:32:43.482Z,552.00
2024-03-11T02:33:43.513Z,551.00
2024-03-11T02:34:43.549Z,548.00
2024-03-11T02:35:43.589Z,548.00
2024-03-11T02:36:43.622Z,547.00
2024-03-11T02:37:43.701Z,549.00
2024-03-11T02:38:43.785Z,546.00
2024-03-11T02:39:43.775Z,544.00
2024-03-11T02:40:43.800Z,543.00
2024-03-11T02:41:43.914Z,545.00
2024-03-11T02:42:43.886Z,544.00
2024-03-11T02:43:43.904Z,545.00
2024-03-11T02:44:44.044Z,546.00
2024-03-11T02:45:44.012Z,545.00
2024-03-11T02:46:44.052Z,546.00
2024-03-11T02:47:45.013Z,547.00
2024-03-11T02:48:44.195Z,547.00
2024-03-11T02:49:44.206Z,549.00
2024-03-11T02:50:44.374Z,549.00
2024-03-11T02:51:44.348Z,549.00
2024-03-11T02:52:44.366Z,547.00
2024-03-11T02:53:44.433Z,547.00
2024-03-11T02:54:44.474Z,549.00
2024-03-11T02:55:44.568Z,550.00
2024-03-11T02:56:44.773Z,554.00
2024-03-11T02:57:44.743Z,555.00
2024-03-11T02:58:44.665Z,555.00
2024-03-11T02:59:44.805Z,554.00
2024-03-11T03:00:44.785Z,554.00
2024-03-11T03:01:44.838Z,552.00
2024-03-11T03:02:44.915Z,549.00
2024-03-11T03:03:44.890Z,547.00
2024-03-11T03:04:44.936Z,546.00
2024-03-11T03:05:45.076Z,546.00
2024-03-11T03:06:45.022Z,544.00
2024-03-11T03:07:45.048Z,544.00
2024-03-11T03:08:45.152Z,544.00
2024-03-11T03:09:45.101Z,545.00
2024-03-11T03:10:45.185Z,546.00
2024-03-11T03:11:45.205Z,547.00
2024-03-11T03:12:45.215Z,549.00
2024-03-11T03:13:45.228Z,552.00
2024-03-11T03:14:45.297Z,552.00
2024-03-11T03:15:45.234Z,552.00
2024-03-11T03:16:45.303Z,552.00
2024-03-11T03:17:45.466Z,554.00
2024-03-11T03:18:45.342Z,554.00
2024-03-11T03:19:45.371Z,552.00
2024-03-11T03:20:45.408Z,551.00
2024-03-11T03:21:45.412Z,552.00
2024-03-11T03:22:45.429Z,553.00
2024-03-11T03:23:45.534Z,554.00
2024-03-11T03:24:45.479Z,554.00
2024-03-11T03:25:45.480Z,554.00
2024-03-11T03:26:45.610Z,554.00
2024-03-11T03:27:45.522Z,556.00
2024-03-11T03:28:45.549Z,555.00
2024-03-11T03:29:45.742Z,555.00
2024-03-11T03:30:45.626Z,554.00
2024-03-11T03:31:45.651Z,553.00
2024-03-11T03:32:45.730Z,551.00
2024-03-11T03:33:45.725Z,552.00
2024-03-11T03:34:45.689Z,550.00
2024-03-11T03:35:45.806Z,550.00
2024-03-11T03:36:45.763Z,549.00
2024-03-11T03:37:45.789Z,547.00
2024-03-11T03:38:45.853Z,546.00
2024-03-11T03:39:45.837Z,546.00
2024-03-11T03:40:45.851Z,546.00
2024-03-11T03:41:45.986Z,544.00
2024-03-11T03:42:45.910Z,544.00
2024-03-11T03:43:45.917Z,544.00
2024-03-11T03:44:46.010Z,544.00
2024-03-11T03:45:46.235Z,542.00
2024-03-11T03:46:45.958Z,539.00
2024-03-11T03:47:46.116Z,540.00
2024-03-11T03:48:46.032Z,544.00
2024-03-11T03:49:46.056Z,544.00
2024-03-11T03:50:46.104Z,545.00
2024-03-11T03:51:46.112Z,546.00
2024-03-11T03:52:46.156Z,548.00
2024-03-11T03:53:46.141Z,548.00
2024-03-11T03:54:46.164Z,548.00
2024-03-11T03:55:46.216Z,548.00
2024-03-11T03:56:46.250Z,547.00
2024-03-11T03:57:46.370Z,547.00
2024-03-11T03:58:46.268Z,546.00
2024-03-11T03:59:46.613Z,546.00
2024-03-11T04:00:46.281Z,547.00
2024-03-11T04:01:46.318Z,546.00
2024-03-11T04:02:46.442Z,545.00
2024-03-11T04:03:46.314Z,547.00
2024-03-11T04:04:46.372Z,549.00
2024-03-11T04:05:46.377Z,549.00
2024-03-11T04:06:46.424Z,546.00
2024-03-11T04:07:46.453Z,545.00
2024-03-11T04:08:46.525Z,545.00
2024-03-11T04:09:46.528Z,546.00
2024-03-11T04:10:46.547Z,546.00
2024-03-11T04:11:46.604Z,545.00
2024-03-11T04:12:46.709Z,547.00
2024-03-11T04:13:46.566Z,550.00
2024-03-11T04:14:46.623Z,549.00
2024-03-11T04:15:46.593Z,548.00
2024-03-11T04:16:46.621Z,549.00
2024-03-11T04:17:46.783Z,552.00
2024-03-11T04:18:46.662Z,551.00
2024-03-11T04:19:46.685Z,550.00
2024-03-11T04:20:46.782Z,547.00
2024-03-11T04:21:46.744Z,546.00
2024-03-11T04:22:46.740Z,547.00
2024-03-11T04:23:46.864Z,547.00
2024-03-11T04:24:46.804Z,548.00
2024-03-11T04:25:46.808Z,546.00
2024-03-11T04:26:46.875Z,545.00
2024-03-11T04:27:46.834Z,544.00
2024-03-11T04:28:54.082Z,536.00
2024-03-11T04:29:54.089Z,532.00
2024-03-11T04:30:54.078Z,536.00
2024-03-11T04:32:01.303Z,535.00
2024-03-11T04:33:01.596Z,538.00
2024-03-11T04:34:01.310Z,538.00
2024-03-11T04:35:01.350Z,539.00
2024-03-11T04:36:01.318Z,539.00
2024-03-11T04:37:01.349Z,539.00
2024-03-11T04:38:01.317Z,538.00
2024-03-11T04:39:01.339Z,539.00
2024-03-11T04:40:01.312Z,540.00
2024-03-11T04:41:01.325Z,539.00
2024-03-11T04:42:01.428Z,540.00
2024-03-11T04:43:01.394Z,539.00
2024-03-11T04:44:01.325Z,541.00
2024-03-11T04:45:01.318Z,542.00
2024-03-11T04:46:01.330Z,543.00
2024-03-11T04:47:01.327Z,543.00
2024-03-11T04:48:01.611Z,542.00
2024-03-11T04:49:01.325Z,540.00
2024-03-11T04:50:01.335Z,539.00
2024-03-11T04:51:01.485Z,541.00
2024-03-11T04:52:01.317Z,543.00
2024-03-11T04:53:01.309Z,545.00
2024-03-11T04:54:01.385Z,543.00
2024-03-11T04:55:01.304Z,544.00
2024-03-11T04:56:01.321Z,545.00
2024-03-11T04:57:01.334Z,545.00
2024-03-11T04:58:01.314Z,547.00
2024-03-11T04:59:01.341Z,546.00
2024-03-11T05:00:01.417Z,545.00
2024-03-11T05:01:01.338Z,544.00
2024-03-11T05:02:01.330Z,544.00
2024-03-11T05:03:01.369Z,545.00
2024-03-11T05:04:03.390Z,545.00
2024-03-11T05:05:01.315Z,546.00
2024-03-11T05:06:01.393Z,546.00
2024-03-11T05:07:01.326Z,548.00
2024-03-11T05:08:01.387Z,547.00
2024-03-11T05:09:01.354Z,546.00
2024-03-11T05:10:01.343Z,547.00
2024-03-11T05:11:01.430Z,547.00
2024-03-11T05:12:01.418Z,549.00
2024-03-11T05:13:01.354Z,551.00
2024-03-11T05:14:01.337Z,553.00
2024-03-11T05:15:01.352Z,553.00
2024-03-11T05:16:01.372Z,553.00
2024-03-11T05:17:01.347Z,554.00
2024-03-11T05:18:01.435Z,554.00
2024-03-11T05:19:01.340Z,555.00
2024-03-11T05:20:01.370Z,555.00
2024-03-11T05:21:01.381Z,555.00
2024-03-11T05:22:01.337Z,556.00
2024-03-11T05:23:01.379Z,556.00
2024-03-11T05:24:01.351Z,557.00
2024-03-11T05:25:01.397Z,556.00
2024-03-11T05:26:01.344Z,555.00
2024-03-11T05:27:01.350Z,555.00
2024-03-11T05:28:01.359Z,559.00
2024-03-11T05:29:01.354Z,560.00
2024-03-11T05:30:01.394Z,561.00
2024-03-11T05:31:01.345Z,560.00
2024-03-11T05:32:01.362Z,561.00
2024-03-11T05:33:01.472Z,558.00
2024-03-11T05:34:01.381Z,557.00
2024-03-11T05:35:01.374Z,555.00
2024-03-11T05:36:01.354Z,556.00
2024-03-11T05:37:01.384Z,555.00
2024-03-11T05:38:01.347Z,554.00
2024-03-11T05:39:01.353Z,556.00
2024-03-11T05:40:01.495Z,556.00
2024-03-11T05:41:01.374Z,555.00
2024-03-11T05:42:01.361Z,553.00
2024-03-11T05:43:01.416Z,552.00
2024-03-11T05:44:01.345Z,552.00
2024-03-11T05:45:01.379Z,554.00
2024-03-11T05:46:01.362Z,552.00
2024-03-11T05:47:01.372Z,551.00
2024-03-11T05:48:01.461Z,555.00
2024-03-11T05:49:01.353Z,553.00
2024-03-11T05:50:01.380Z,553.00
2024-03-11T05:51:01.464Z,551.00
2024-03-11T05:52:01.368Z,548.00
2024-03-11T05:53:01.384Z,549.00
2024-03-11T05:54:01.371Z,550.00
2024-03-11T05:55:04.032Z,551.00
2024-03-11T05:56:01.430Z,549.00
2024-03-11T05:57:01.370Z,547.00
2024-03-11T05:58:01.371Z,549.00
2024-03-11T05:59:01.375Z,549.00
2024-03-11T06:00:01.375Z,551.00
2024-03-11T06:01:01.376Z,550.00
2024-03-11T06:02:01.441Z,550.00
2024-03-11T06:03:01.962Z,550.00
2024-03-11T06:04:01.380Z,551.00
2024-03-11T06:05:01.419Z,551.00
2024-03-11T06:06:01.496Z,553.00
2024-03-11T06:07:01.380Z,555.00
2024-03-11T06:08:01.398Z,556.00
2024-03-11T06:09:01.392Z,556.00
2024-03-11T06:10:01.403Z,557.00
2024-03-11T06:11:01.490Z,559.00
2024-03-11T06:12:01.450Z,560.00
2024-03-11T06:13:01.404Z,560.00
2024-03-11T06:14:01.420Z,559.00
2024-03-11T06:15:01.402Z,557.00
2024-03-11T06:16:01.414Z,556.00
2024-03-11T06:17:04.250Z,557.00
2024-03-11T06:18:01.655Z,559.00
2024-03-11T06:19:01.431Z,559.00
2024-03-11T06:20:01.397Z,561.00
2024-03-11T06:21:01.429Z,562.00
2024-03-11T06:22:01.416Z,564.00
2024-03-11T06:23:01.407Z,566.00
2024-03-11T06:24:01.399Z,567.00
2024-03-11T06:25:01.375Z,568.00
2024-03-11T06:26:01.384Z,568.00
2024-03-11T06:27:01.416Z,569.00
2024-03-11T06:28:01.460Z,570.00
2024-03-11T06:29:01.398Z,568.00
2024-03-11T06:30:01.410Z,567.00
2024-03-11T06:31:01.422Z,567.00
2024-03-11T06:32:01.401Z,569.00
2024-03-11T06:33:01.550Z,752.00
2024-03-11T06:34:01.402Z,639.00
2024-03-11T06:35:01.421Z,610.00
2024-03-11T06:36:01.422Z,614.00
2024-03-11T06:37:01.411Z,624.00
2024-03-11T06:38:01.416Z,652.00
2024-03-11T06:39:01.398Z,677.00
2024-03-11T06:40:01.564Z,687.00
2024-03-11T06:41:01.455Z,701.00
2024-03-11T06:42:01.599Z,803.00
2024-03-11T06:43:01.453Z,790.00
2024-03-11T06:44:01.485Z,799.00
2024-03-11T06:45:01.579Z,806.00
2024-03-11T06:46:01.511Z,813.00
2024-03-11T06:47:01.606Z,819.00
2024-03-11T06:48:02.153Z,822.00
2024-03-11T06:49:01.770Z,832.00
2024-03-11T06:50:01.760Z,844.00
2024-03-11T06:51:03.309Z,870.00
2024-03-11T06:52:01.783Z,891.00
2024-03-11T06:53:02.043Z,904.00
2024-03-11T06:54:01.826Z,909.00
2024-03-11T06:55:01.819Z,912.00
2024-03-11T06:56:01.785Z,966.00
2024-03-11T06:57:01.939Z,964.00
2024-03-11T06:58:02.002Z,973.00
2024-03-11T06:59:02.173Z,981.00
2024-03-11T07:00:01.936Z,989.00
2024-03-11T07:01:01.839Z,992.00
2024-03-11T07:02:01.788Z,997.00
2024-03-11T07:03:01.814Z,1003.00
2024-03-11T07:04:01.965Z,1016.00
2024-03-11T07:05:01.790Z,1030.00
2024-03-11T07:06:01.853Z,1044.00
2024-03-11T07:07:01.844Z,1057.00
2024-03-11T07:08:01.804Z,1068.00
2024-03-11T07:09:01.974Z,1087.00
2024-03-11T07:10:01.991Z,1091.00
2024-03-11T07:11:03.485Z,1094.00
2024-03-11T07:12:01.842Z,1117.00
2024-03-11T07:13:01.831Z,1148.00
2024-03-11T07:14:01.824Z,1141.00
2024-03-11T07:15:01.973Z,1135.00
2024-03-11T07:16:01.806Z,1135.00
2024-03-11T07:17:03.570Z,1144.00
2024-03-11T07:18:02.001Z,1151.00
2024-03-11T07:19:01.838Z,1160.00
2024-03-11T07:20:02.005Z,1164.00
2024-03-11T07:21:01.785Z,1177.00
2024-03-11T07:22:01.828Z,1192.00
2024-03-11T07:23:01.846Z,1220.00
2024-03-11T07:24:01.834Z,1229.00
2024-03-11T07:25:02.031Z,1243.00
2024-03-11T07:26:01.841Z,1251.00
2024-03-11T07:27:01.915Z,1254.00
2024-03-11T07:28:01.914Z,1253.00
2024-03-11T07:29:01.954Z,1250.00
2024-03-11T07:30:02.049Z,1248.00
2024-03-11T07:31:02.129Z,1249.00
2024-03-11T07:32:02.309Z,1259.00
2024-03-11T07:33:02.258Z,1264.00
2024-03-11T07:34:02.306Z,1270.00
2024-03-11T07:35:02.343Z,1278.00
2024-03-11T07:36:02.393Z,1289.00
2024-03-11T07:37:02.409Z,1293.00
2024-03-11T07:38:02.616Z,1291.00
2024-03-11T07:39:02.523Z,1099.00
2024-03-11T07:40:03.011Z,1191.00
2024-03-11T07:41:02.544Z,1206.00
2024-03-11T07:42:02.549Z,1133.00
2024-03-11T07:43:02.609Z,1085.00
2024-03-11T07:44:02.605Z,1090.00
2024-03-11T07:45:02.985Z,1096.00
2024-03-11T07:46:02.674Z,1100.00
2024-03-11T07:47:02.676Z,1104.00
2024-03-11T07:48:02.817Z,1104.00
2024-03-11T07:49:02.713Z,1104.00
2024-03-11T07:50:02.998Z,1101.00
2024-03-11T07:51:02.854Z,1101.00
2024-03-11T07:52:02.813Z,1102.00
2024-03-11T07:53:03.004Z,1107.00
2024-03-11T07:54:02.822Z,1115.00
2024-03-11T07:55:02.880Z,1121.00
2024-03-11T07:56:02.933Z,1123.00
2024-03-11T07:57:02.995Z,1124.00
2024-03-11T07:58:03.513Z,1129.00
2024-03-11T07:59:03.113Z,1138.00
2024-03-11T08:00:03.208Z,1147.00
2024-03-11T08:01:03.743Z,1152.00
2024-03-11T08:02:03.306Z,1156.00
2024-03-11T08:03:03.359Z,1177.00
2024-03-11T08:04:03.485Z,1186.00
2024-03-11T08:05:03.442Z,1191.00
2024-03-11T08:06:03.515Z,1195.00
2024-03-11T08:07:03.525Z,1202.00
2024-03-11T08:08:03.525Z,1203.00
2024-03-11T08:09:03.595Z,1206.00
2024-03-11T08:10:03.684Z,1214.00
2024-03-11T08:11:04.017Z,1221.00
2024-03-11T08:12:03.678Z,1229.00
2024-03-11T08:13:03.661Z,1229.00
2024-03-11T08:14:03.688Z,1235.00
2024-03-11T08:15:03.716Z,1235.00
2024-03-11T08:16:03.750Z,1233.00
2024-03-11T08:17:03.744Z,1233.00
2024-03-11T08:18:03.914Z,1234.00
2024-03-11T08:19:03.815Z,1240.00
2024-03-11T08:20:04.038Z,1244.00
2024-03-11T08:21:03.861Z,1249.00
2024-03-11T08:22:03.869Z,1250.00
2024-03-11T08:23:04.060Z,1252.00
2024-03-11T08:24:03.897Z,1257.00
2024-03-11T08:25:03.948Z,1262.00
2024-03-11T08:26:03.949Z,1260.00
2024-03-11T08:27:06.246Z,1260.00
2024-03-11T08:28:03.993Z,1261.00
2024-03-11T08:29:04.013Z,1261.00
2024-03-11T08:30:03.990Z,1264.00
2024-03-11T08:31:03.990Z,1264.00
2024-03-11T08:32:04.004Z,1264.00
2024-03-11T08:33:04.091Z,1263.00
2024-03-11T08:34:03.982Z,1260.00
2024-03-11T08:35:45.534Z,1273.00
2024-03-11T08:36:45.308Z,1258.00
2024-03-11T08:37:45.306Z,1247.00
2024-03-11T08:38:47.251Z,1233.00
2024-03-11T08:39:45.380Z,1184.00
2024-03-11T08:40:45.422Z,1193.00
2024-03-11T08:41:45.326Z,1188.00
2024-03-11T08:42:45.337Z,1183.00
2024-03-11T08:43:45.297Z,1181.00
2024-03-11T08:44:45.534Z,1174.00
2024-03-11T08:45:45.299Z,1172.00
2024-03-11T08:46:45.396Z,1172.00
2024-03-11T08:47:45.336Z,1172.00
2024-03-11T08:48:45.371Z,1174.00
2024-03-11T08:49:45.892Z,1171.00
2024-03-11T08:50:45.533Z,1171.00
2024-03-11T08:51:45.622Z,1173.00
2024-03-11T08:52:45.668Z,1174.00
2024-03-11T08:53:45.699Z,1176.00
2024-03-11T08:54:45.738Z,1175.00
2024-03-11T08:55:45.780Z,1181.00
2024-03-11T08:56:45.909Z,1195.00
2024-03-11T08:57:45.952Z,1192.00
2024-03-11T08:58:46.398Z,1186.00
2024-03-11T08:59:46.078Z,1178.00
2024-03-11T09:00:46.154Z,1171.00
2024-03-11T09:01:46.171Z,1169.00
2024-03-11T09:02:46.684Z,1183.00
2024-03-11T09:03:46.396Z,1177.00
2024-03-11T09:04:46.396Z,1169.00
2024-03-11T09:05:46.511Z,1168.00
2024-03-11T09:06:46.556Z,1167.00
2024-03-11T09:07:46.590Z,1166.00
2024-03-11T09:08:47.412Z,1166.00
2024-03-11T09:09:46.804Z,1165.00
2024-03-11T09:10:46.868Z,1165.00
2024-03-11T09:11:46.886Z,1161.00
2024-03-11T09:12:47.002Z,1159.00
2024-03-11T09:13:47.460Z,1154.00
2024-03-11T09:14:46.977Z,1153.00
2024-03-11T09:15:47.073Z,1149.00
2024-03-11T09:16:47.412Z,1143.00
2024-03-11T09:17:47.213Z,1137.00
2024-03-11T09:18:47.261Z,1132.00
2024-03-11T09:19:47.418Z,1169.00
2024-03-11T09:20:47.292Z,1152.00
2024-03-11T09:21:47.340Z,1150.00
2024-03-11T09:22:47.472Z,1146.00
2024-03-11T09:23:47.416Z,1146.00
2024-03-11T09:24:47.953Z,1143.00
2024-03-11T09:25:47.481Z,1139.00
2024-03-11T09:26:47.523Z,1122.00
2024-03-11T09:27:47.694Z,1115.00
2024-03-11T09:28:47.638Z,1046.00
2024-03-11T09:29:47.936Z,1048.00
2024-03-11T09:30:47.919Z,1042.00
2024-03-11T09:31:47.854Z,1008.00
2024-03-11T09:32:47.930Z,987.00
2024-03-11T09:33:47.992Z,940.00
2024-03-11T09:34:47.948Z,906.00
2024-03-11T09:35:47.977Z,883.00
2024-03-11T09:36:47.988Z,874.00
2024-03-11T09:37:48.283Z,787.00
2024-03-11T09:38:48.026Z,754.00
2024-03-11T09:39:48.471Z,743.00
2024-03-11T09:40:48.145Z,729.00
2024-03-11T09:41:48.145Z,734.00
2024-03-11T09:42:48.242Z,785.00
2024-03-11T09:43:48.147Z,813.00
2024-03-11T09:44:48.425Z,827.00
2024-03-11T09:45:48.341Z,835.00
2024-03-11T09:46:48.367Z,847.00
2024-03-11T09:47:48.722Z,865.00
2024-03-11T09:48:48.465Z,857.00
2024-03-11T09:49:48.923Z,873.00
2024-03-11T09:50:48.542Z,889.00
2024-03-11T09:51:48.634Z,901.00
2024-03-11T09:52:48.661Z,910.00
2024-03-11T09:53:48.605Z,918.00
2024-03-11T09:54:49.058Z,931.00
2024-03-11T09:55:48.643Z,938.00
2024-03-11T09:56:48.713Z,944.00
2024-03-11T09:57:48.863Z,950.00
2024-03-11T09:58:48.938Z,966.00
2024-03-11T09:59:48.925Z,977.00
2024-03-11T10:00:49.030Z,982.00
2024-03-11T10:01:49.072Z,990.00
2024-03-11T10:02:49.064Z,995.00
2024-03-11T10:03:49.464Z,1003.00
2024-03-11T10:04:49.100Z,1012.00
2024-03-11T10:05:49.149Z,1024.00
2024-03-11T10:06:49.200Z,1042.00
2024-03-11T10:07:49.220Z,1043.00
2024-03-11T10:08:49.464Z,1045.00
2024-03-11T10:09:49.393Z,1049.00
2024-03-11T10:10:49.287Z,1054.00
2024-03-11T10:11:49.320Z,1055.00
2024-03-11T10:12:50.419Z,1057.00
2024-03-11T10:13:49.333Z,1061.00
2024-03-11T10:14:49.365Z,1069.00
2024-03-11T10:15:49.381Z,1077.00
2024-03-11T10:16:49.438Z,1090.00
2024-03-11T10:17:49.512Z,1089.00
2024-03-11T10:18:49.485Z,1091.00
2024-03-11T10:19:49.462Z,1094.00
2024-03-11T10:20:49.448Z,1100.00
2024-03-11T10:21:49.511Z,1100.00
2024-03-11T10:22:49.512Z,1100.00
2024-03-11T10:23:49.580Z,1033.00
2024-03-11T10:24:50.104Z,965.00
2024-03-11T10:25:49.587Z,988.00
2024-03-11T10:26:49.590Z,987.00
2024-03-11T10:27:49.813Z,1001.00
2024-03-11T10:28:49.675Z,1008.00
2024-03-11T10:29:49.724Z,1015.00
2024-03-11T10:30:50.043Z,1019.00
2024-03-11T10:31:49.803Z,1028.00
2024-03-11T10:32:49.906Z,1041.00
2024-03-11T10:33:49.926Z,947.00
2024-03-11T10:34:49.970Z,844.00
2024-03-11T10:35:49.960Z,869.00
2024-03-11T10:36:52.426Z,911.00
2024-03-11T10:37:50.029Z,921.00
2024-03-11T10:38:50.502Z,917.00
2024-03-11T10:39:50.081Z,932.00
2024-03-11T10:40:50.022Z,950.00
2024-03-11T10:41:50.058Z,977.00
2024-03-11T10:42:50.497Z,989.00
2024-03-11T10:43:50.038Z,1000.00
2024-03-11T10:44:50.012Z,1008.00
2024-03-11T10:45:50.135Z,1009.00
2024-03-11T10:46:50.018Z,1011.00
2024-03-11T10:47:50.532Z,1020.00
2024-03-11T10:48:50.112Z,1027.00
2024-03-11T10:49:51.014Z,1030.00
2024-03-11T10:50:50.000Z,1062.00
2024-03-11T10:51:50.091Z,1064.00
2024-03-11T10:52:50.501Z,1063.00
2024-03-11T10:53:50.025Z,1065.00
2024-03-11T10:55:02.450Z,1070.00
2024-03-11T10:55:51.031Z,1077.00
2024-03-11T10:56:50.531Z,1083.00
2024-03-11T10:57:50.055Z,1086.00
2024-03-11T10:58:50.055Z,1090.00
2024-03-11T10:59:50.039Z,1091.00
2024-03-11T11:00:50.163Z,1096.00
2024-03-11T11:01:50.127Z,1102.00
2024-03-11T11:02:50.497Z,1107.00
2024-03-11T11:03:50.059Z,1114.00
2024-03-11T11:04:50.075Z,1128.00
2024-03-11T11:05:50.477Z,1135.00
2024-03-11T11:06:50.240Z,1139.00
2024-03-11T11:07:50.508Z,1146.00
2024-03-11T11:08:50.329Z,1153.00
2024-03-11T11:09:50.477Z,1156.00
2024-03-11T11:10:50.423Z,1164.00
2024-03-11T11:11:50.514Z,1169.00
2024-03-11T11:12:51.001Z,1172.00
2024-03-11T11:13:50.556Z,1172.00
2024-03-11T11:14:50.626Z,1175.00
2024-03-11T11:15:50.732Z,1186.00
2024-03-11T11:16:50.732Z,1191.00
2024-03-11T11:17:51.010Z,1192.00
2024-03-11T11:18:50.745Z,1189.00
2024-03-11T11:19:50.719Z,1187.00
2024-03-11T11:20:50.801Z,1188.00
2024-03-11T11:21:50.945Z,1186.00
2024-03-11T11:22:51.015Z,1188.00
2024-03-11T11:23:50.917Z,1186.00
2024-03-11T11:24:50.996Z,1181.00
2024-03-11T11:25:50.974Z,1101.00
2024-03-11T11:26:50.999Z,997.00
2024-03-11T11:27:51.132Z,1092.00
2024-03-11T11:28:51.057Z,860.00
2024-03-11T11:29:51.496Z,836.00
2024-03-11T11:30:51.175Z,821.00
2024-03-11T11:31:51.171Z,791.00
2024-03-11T11:32:51.173Z,788.00
2024-03-11T11:33:51.365Z,864.00
2024-03-11T11:34:51.212Z,878.00
2024-03-11T11:35:51.249Z,880.00
2024-03-11T11:36:51.332Z,921.00
2024-03-11T11:37:51.257Z,937.00
2024-03-11T11:38:51.334Z,946.00
2024-03-11T11:39:51.639Z,951.00
2024-03-11T11:40:51.476Z,961.00
2024-03-11T11:41:54.362Z,968.00
2024-03-11T11:42:51.486Z,976.00
2024-03-11T11:43:51.414Z,981.00
2024-03-11T11:44:51.876Z,990.00
2024-03-11T11:45:51.672Z,994.00
2024-03-11T11:46:51.384Z,1002.00
2024-03-11T11:47:51.465Z,1008.00
2024-03-11T11:48:51.541Z,1013.00
2024-03-11T11:49:51.411Z,1020.00
2024-03-11T11:50:51.475Z,1023.00
2024-03-11T11:51:51.514Z,1026.00
2024-03-11T11:52:55.488Z,1030.00
2024-03-11T11:53:58.164Z,1031.00
2024-03-11T11:54:52.427Z,1036.00
2024-03-11T11:55:51.478Z,1042.00
2024-03-11T11:56:51.452Z,1047.00
2024-03-11T11:57:51.502Z,1055.00
2024-03-11T11:58:51.398Z,1052.00
2024-03-11T11:59:51.412Z,1054.00
2024-03-11T12:00:51.426Z,1058.00
2024-03-11T12:01:51.462Z,1062.00
2024-03-11T12:02:51.506Z,1067.00
2024-03-11T12:03:51.497Z,1076.00
2024-03-11T12:04:51.435Z,1083.00
2024-03-11T12:05:52.020Z,1085.00
2024-03-11T12:06:51.561Z,1086.00
2024-03-11T12:07:51.472Z,1095.00
2024-03-11T12:08:51.418Z,1097.00
2024-03-11T12:09:51.601Z,1095.00
2024-03-11T12:10:51.510Z,1081.00
2024-03-11T12:11:51.469Z,1053.00
2024-03-11T12:12:51.467Z,981.00
2024-03-11T12:13:51.435Z,977.00
2024-03-11T12:14:51.426Z,967.00
2024-03-11T12:15:51.543Z,954.00
2024-03-11T12:16:51.447Z,918.00
2024-03-11T12:17:51.488Z,905.00
2024-03-11T12:18:51.516Z,899.00
2024-03-11T12:19:51.415Z,890.00
2024-03-11T12:20:51.511Z,862.00
2024-03-11T12:21:51.530Z,804.00